Time;durP1;ratioP1;P1;durP2;ratioP2;P2;SDS_P1;SDS_P2;PMS_P1;PMS_P2;Temp;Humidity;BMP_temperature;BMP_pressure;BME280_temperature;BME280_humidity;BME280_pressure;Samples;Min_cycle;Max_cycle;Signal;HPM_P1;HPM_P2
2021/08/03 00:01:11;;;;;;;4.65;1.80;;;16.80;99.90;;;;;;5056054;28;20025;-83
2021/08/03 00:03:40;;;;;;;2.92;1.73;;;16.80;99.90;;;;;;5056201;28;20029;-86
2021/08/03 00:06:14;;;;;;;7.55;2.17;;;16.80;99.90;;;;;;5055979;28;20028;-83
2021/08/03 00:08:42;;;;;;;2.55;1.80;;;16.80;99.90;;;;;;5056150;28;20021;-83
2021/08/03 00:11:09;;;;;;;2.30;1.60;;;16.80;99.90;;;;;;5057052;28;20921;-83
2021/08/03 00:13:37;;;;;;;3.55;1.50;;;16.80;99.90;;;;;;5057058;28;20029;-85
2021/08/03 00:16:08;;;;;;;3.25;1.83;;;16.80;99.90;;;;;;5055547;28;20082;-85
2021/08/03 00:18:36;;;;;;;2.20;1.88;;;16.80;99.90;;;;;;5055632;28;20496;-85
2021/08/03 00:21:02;;;;;;;2.45;1.70;;;16.80;99.90;;;;;;5055661;28;20024;-86
2021/08/03 00:23:28;;;;;;;2.30;1.83;;;16.80;99.90;;;;;;5055524;28;20036;-85
2021/08/03 00:25:54;;;;;;;3.75;1.70;;;16.70;99.90;;;;;;5055524;28;20025;-83
2021/08/03 00:28:21;;;;;;;3.58;1.80;;;16.70;99.90;;;;;;5056485;28;20029;-85
2021/08/03 00:30:50;;;;;;;2.25;1.80;;;16.70;99.90;;;;;;5055619;28;20487;-83
2021/08/03 00:33:17;;;;;;;3.67;1.85;;;16.70;99.90;;;;;;5055205;28;20108;-83
2021/08/03 00:35:43;;;;;;;3.22;1.77;;;16.70;99.90;;;;;;5056745;28;20025;-84
2021/08/03 00:38:09;;;;;;;3.13;1.60;;;16.70;99.90;;;;;;5055637;28;20056;-83
2021/08/03 00:40:40;;;;;;;3.40;1.70;;;16.60;99.90;;;;;;5055181;28;20037;-84
2021/08/03 00:43:06;;;;;;;3.03;1.65;;;16.60;99.90;;;;;;5055354;28;20021;-84
2021/08/03 00:45:34;;;;;;;4.18;1.90;;;16.50;99.90;;;;;;5055486;28;20025;-84
2021/08/03 00:47:59;;;;;;;4.47;1.63;;;16.50;99.90;;;;;;5055079;28;20045;-84
2021/08/03 00:50:25;;;;;;;3.88;1.90;;;16.40;99.90;;;;;;5054004;28;20472;-84
2021/08/03 00:52:51;;;;;;;1.70;1.60;;;16.40;99.90;;;;;;5055073;28;20472;-84
2021/08/03 00:55:16;;;;;;;2.80;1.73;;;16.50;99.90;;;;;;5055160;28;20071;-85
2021/08/03 00:57:43;;;;;;;2.45;1.98;;;16.40;99.90;;;;;;5055034;28;20079;-85
2021/08/03 01:00:09;;;;;;;1.65;1.55;;;16.40;99.90;;;;;;5054755;28;20033;-83
2021/08/03 01:02:35;;;;;;;2.70;2.03;;;16.40;99.90;;;;;;5055092;28;20017;-83
2021/08/03 01:05:01;;;;;;;2.17;1.83;;;16.40;99.90;;;;;;5055090;28;20025;-84
2021/08/03 01:07:30;;;;;;;5.13;1.77;;;16.40;99.90;;;;;;5054987;28;20494;-83
2021/08/03 01:10:11;;;;;;;3.63;2.20;;;16.40;99.90;;;;;;5054956;28;20066;-84
2021/08/03 01:12:48;;;;;;;4.38;1.80;;;16.40;99.90;;;;;;5054668;28;20021;-83
2021/08/03 01:15:18;;;;;;;3.70;1.67;;;16.40;99.90;;;;;;5054630;28;20028;-85
2021/08/03 01:18:24;;;;;;;2.40;1.67;;;16.40;99.90;;;;;;5054713;28;20039;-84
2021/08/03 01:21:12;;;;;;;2.40;2.00;;;16.40;99.90;;;;;;5052345;28;20412;-83
2021/08/03 01:23:54;;;;;;;5.55;2.05;;;16.40;99.90;;;;;;5054745;28;20476;-82
2021/08/03 01:26:57;;;;;;;2.42;1.75;;;16.40;99.90;;;;;;5055877;28;20029;-84
2021/08/03 01:29:25;;;;;;;3.45;1.63;;;16.40;99.90;;;;;;5054330;28;20025;-84
2021/08/03 01:31:56;;;;;;;3.58;1.65;;;16.40;99.90;;;;;;5054223;28;20032;-85
2021/08/03 01:34:24;;;;;;;2.33;1.52;;;16.50;99.90;;;;;;5054168;28;20110;-84
2021/08/03 01:36:53;;;;;;;3.67;1.65;;;16.50;99.90;;;;;;5054472;28;20465;-84
2021/08/03 01:39:24;;;;;;;3.45;1.80;;;16.50;99.90;;;;;;5054299;28;20518;-83
2021/08/03 01:41:52;;;;;;;4.40;1.70;;;16.40;99.90;;;;;;5053965;28;20025;-85
2021/08/03 01:44:18;;;;;;;2.33;1.50;;;16.50;99.90;;;;;;5054249;28;20388;-86
2021/08/03 01:46:45;;;;;;;1.88;1.50;;;16.40;99.90;;;;;;5053997;28;20027;-83
2021/08/03 01:49:17;;;;;;;4.32;1.80;;;16.40;99.90;;;;;;5053970;28;20021;-84
2021/08/03 01:51:44;;;;;;;3.50;1.38;;;16.50;99.90;;;;;;5054960;28;20028;-83
2021/08/03 01:54:10;;;;;;;2.05;1.40;;;16.40;99.90;;;;;;5053846;28;20476;-83
2021/08/03 01:56:38;;;;;;;2.55;1.48;;;16.40;99.90;;;;;;5053935;28;20025;-83
2021/08/03 01:59:06;;;;;;;3.00;1.35;;;16.40;99.90;;;;;;5053847;28;20047;-83
2021/08/03 02:01:35;;;;;;;1.98;1.40;;;16.40;99.90;;;;;;5053453;28;20480;-86
2021/08/03 02:04:02;;;;;;;3.28;1.30;;;16.30;99.90;;;;;;5053725;28;20112;-83
2021/08/03 02:06:29;;;;;;;3.30;1.60;;;16.20;99.90;;;;;;5053620;28;20116;-83
2021/08/03 02:09:00;;;;;;;2.28;1.40;;;16.30;99.90;;;;;;5053689;28;20175;-84
2021/08/03 02:11:29;;;;;;;4.28;1.50;;;16.30;99.90;;;;;;5053503;28;20112;-83
2021/08/03 02:13:59;;;;;;;3.42;1.65;;;16.30;99.90;;;;;;5053751;28;20032;-84
2021/08/03 02:16:25;;;;;;;3.75;1.70;;;16.20;99.90;;;;;;5054687;28;20074;-83
2021/08/03 02:18:52;;;;;;;6.80;1.58;;;16.20;99.90;;;;;;5053545;28;20083;-83
2021/08/03 02:21:20;;;;;;;2.38;1.25;;;16.20;99.90;;;;;;5053302;28;20017;-83
2021/08/03 02:23:46;;;;;;;1.90;1.52;;;16.20;99.90;;;;;;5054761;28;20031;-85
2021/08/03 02:26:12;;;;;;;2.03;1.63;;;16.20;99.90;;;;;;5053570;28;20396;-84
2021/08/03 02:28:39;;;;;;;2.60;1.48;;;16.20;99.90;;;;;;5053461;28;20021;-84
2021/08/03 02:31:11;;;;;;;3.53;1.38;;;16.20;99.90;;;;;;5053508;28;20551;-83
2021/08/03 02:33:44;;;;;;;2.15;1.42;;;16.10;99.90;;;;;;5053171;28;20028;-85
2021/08/03 02:36:16;;;;;;;3.20;1.58;;;16.10;99.90;;;;;;5053015;28;20021;-82
2021/08/03 02:38:45;;;;;;;3.30;1.27;;;16.10;99.90;;;;;;5053250;28;20119;-83
2021/08/03 02:41:11;;;;;;;2.38;1.50;;;16.00;99.90;;;;;;5054256;28;20071;-84
2021/08/03 02:43:37;;;;;;;4.63;1.63;;;15.90;99.90;;;;;;5053356;28;20025;-84
2021/08/03 02:46:05;;;;;;;3.25;1.05;;;15.90;99.90;;;;;;5053153;28;20036;-84
2021/08/03 02:48:32;;;;;;;2.17;1.27;;;15.70;99.90;;;;;;5053395;28;20167;-84
2021/08/03 02:50:59;;;;;;;4.28;1.50;;;15.70;99.90;;;;;;5053157;28;20028;-86
2021/08/03 02:53:45;;;;;;;4.25;1.45;;;15.70;99.90;;;;;;5053073;28;20048;-85
2021/08/03 02:56:13;;;;;;;;;;;15.60;99.90;;;;;;5053460;28;20147;-85
2021/08/03 02:58:52;;;;;;;5.15;1.52;;;15.60;99.90;;;;;;5053110;28;19923;-85
2021/08/03 03:01:21;;;;;;;4.43;1.55;;;15.50;99.90;;;;;;5053003;28;20056;-87
2021/08/03 03:03:50;;;;;;;5.25;2.22;;;15.50;99.90;;;;;;5052864;28;20139;-89
2021/08/03 03:06:17;;;;;;;5.50;2.60;;;15.50;99.90;;;;;;5053057;28;20468;-85
2021/08/03 03:08:45;;;;;;;4.70;1.52;;;15.40;99.90;;;;;;5053217;28;20097;-85
2021/08/03 03:11:12;;;;;;;3.38;1.83;;;15.40;99.90;;;;;;5052786;28;20079;-84
2021/08/03 03:13:47;;;;;;;3.95;1.58;;;15.30;99.90;;;;;;5054322;28;20032;-84
2021/08/03 03:16:15;;;;;;;2.93;1.60;;;15.30;99.90;;;;;;5056561;28;20029;-84
2021/08/03 03:18:42;;;;;;;2.83;1.65;;;15.30;99.90;;;;;;5057073;28;20286;-84
2021/08/03 03:21:08;;;;;;;1.95;1.63;;;15.20;99.90;;;;;;5056927;28;20025;-84
2021/08/03 03:23:35;;;;;;;4.15;2.30;;;15.30;99.90;;;;;;5056735;28;20053;-83
2021/08/03 03:26:03;;;;;;;4.53;1.77;;;15.30;99.90;;;;;;5056975;28;20024;-85
2021/08/03 03:28:31;;;;;;;4.43;1.48;;;15.20;99.90;;;;;;5056737;28;20542;-86
2021/08/03 03:30:58;;;;;;;3.85;1.95;;;15.20;99.90;;;;;;5056807;28;20547;-85
2021/08/03 03:33:24;;;;;;;3.60;1.60;;;15.10;99.90;;;;;;5056586;28;20473;-85
2021/08/03 03:35:54;;;;;;;7.47;2.00;;;15.10;99.90;;;;;;5056500;28;20043;-84
2021/08/03 03:38:23;;;;;;;4.10;2.08;;;15.10;99.90;;;;;;5056450;28;20029;-84
2021/08/03 03:40:50;;;;;;;3.58;1.73;;;15.10;99.90;;;;;;5056518;28;20032;-86
2021/08/03 03:43:20;;;;;;;2.45;1.75;;;15.00;99.90;;;;;;5056270;28;20047;-86
2021/08/03 03:45:58;;;;;;;3.42;1.75;;;15.00;99.90;;;;;;5056398;28;20456;-86
2021/08/03 03:48:28;;;;;;;7.22;1.75;;;16.40;99.90;;;;;;5058858;28;20045;-85
2021/08/03 03:50:59;;;;;;;4.60;1.73;;;17.00;99.90;;;;;;5060643;28;20025;-88
2021/08/03 03:53:32;;;;;;;2.67;1.30;;;17.50;99.90;;;;;;5056465;28;20079;-84
2021/08/03 03:55:59;;;;;;;2.85;1.50;;;17.70;99.90;;;;;;5055890;28;20029;-84
2021/08/03 03:58:27;;;;;;;2.55;1.20;;;18.10;99.90;;;;;;5059622;28;20442;-87
2021/08/03 04:00:54;;;;;;;5.15;1.27;;;18.40;99.90;;;;;;5056316;28;20025;-87
2021/08/03 04:03:22;;;;;;;3.80;1.30;;;18.50;99.90;;;;;;5056097;28;20071;-87
2021/08/03 04:05:49;;;;;;;5.00;1.30;;;18.70;99.90;;;;;;5056178;28;20487;-84
2021/08/03 04:08:15;;;;;;;5.20;1.08;;;18.40;99.90;;;;;;5056080;28;20021;-85
2021/08/03 04:10:42;;;;;;;3.30;1.23;;;19.20;99.90;;;;;;5056170;28;20437;-86
2021/08/03 04:13:08;;;;;;;5.90;4.47;;;19.00;99.90;;;;;;5055732;28;20021;-84
2021/08/03 04:15:34;;;;;;;12.23;7.15;;;19.10;99.90;;;;;;5056065;28;20048;-86
2021/08/03 04:18:01;;;;;;;6.38;3.97;;;19.50;99.90;;;;;;5057158;28;20476;-84
2021/08/03 04:20:27;;;;;;;11.25;9.85;;;19.60;99.90;;;;;;5055936;28;20065;-84
2021/08/03 04:22:53;;;;;;;9.75;8.95;;;18.80;99.90;;;;;;5055498;28;20052;-85
2021/08/03 04:25:19;;;;;;;7.25;6.55;;;19.30;99.90;;;;;;5055544;28;20483;-85
2021/08/03 04:27:45;;;;;;;3.67;3.08;;;19.50;99.90;;;;;;5055640;28;20094;-84
2021/08/03 04:30:14;;;;;;;3.75;1.70;;;19.80;99.90;;;;;;5055465;28;20459;-83
2021/08/03 04:32:40;;;;;;;2.65;1.20;;;19.30;99.90;;;;;;5055436;28;20025;-86
2021/08/03 04:35:07;;;;;;;3.03;1.30;;;19.20;99.90;;;;;;5055591;28;20391;-85
2021/08/03 04:37:37;;;;;;;4.07;1.30;;;19.40;99.90;;;;;;5055340;28;20017;-86
2021/08/03 04:40:04;;;;;;;3.85;1.30;;;19.30;99.90;;;;;;5055450;28;20028;-85
2021/08/03 04:42:29;;;;;;;3.20;1.30;;;19.20;99.90;;;;;;5056278;28;20075;-85
2021/08/03 04:44:55;;;;;;;8.00;1.27;;;18.90;99.90;;;;;;5055383;28;20029;-85
2021/08/03 04:47:20;;;;;;;2.70;1.30;;;19.10;99.90;;;;;;5054863;28;20041;-84
2021/08/03 04:49:46;;;;;;;1.98;1.33;;;18.80;99.90;;;;;;5054244;28;20476;-84
2021/08/03 04:52:12;;;;;;;3.45;1.10;;;18.90;99.90;;;;;;5054222;28;20021;-86
2021/08/03 04:54:37;;;;;;;3.42;1.33;;;18.70;99.90;;;;;;5054260;28;20025;-84
2021/08/03 04:57:03;;;;;;;3.58;1.42;;;18.90;99.90;;;;;;5054105;28;20878;-85
2021/08/03 04:59:29;;;;;;;2.15;1.27;;;18.90;99.90;;;;;;5055297;28;20369;-84
2021/08/03 05:01:54;;;;;;;6.22;1.60;;;18.90;99.90;;;;;;5053523;28;20044;-85
2021/08/03 05:04:20;;;;;;;4.97;1.70;;;18.80;99.90;;;;;;5053738;28;20491;-86
2021/08/03 05:06:45;;;;;;;6.05;1.75;;;19.00;99.90;;;;;;5053760;28;20106;-84
2021/08/03 05:09:11;;;;;;;2.75;1.42;;;18.60;99.90;;;;;;5053776;28;20024;-86
2021/08/03 05:11:37;;;;;;;6.32;1.45;;;18.70;99.90;;;;;;5053687;28;20036;-87
2021/08/03 05:14:02;;;;;;;5.60;1.40;;;18.70;99.90;;;;;;5053982;28;20021;-86
2021/08/03 05:16:29;;;;;;;4.40;1.63;;;18.40;99.90;;;;;;5054113;28;20025;-87
2021/08/03 05:18:55;;;;;;;4.70;1.55;;;18.70;99.90;;;;;;5053803;28;20083;-90
2021/08/03 05:21:21;;;;;;;3.75;2.00;;;18.80;99.90;;;;;;5053620;28;20469;-84
2021/08/03 05:23:46;;;;;;;3.28;2.45;;;18.30;99.90;;;;;;5053821;28;20121;-85
2021/08/03 05:26:12;;;;;;;5.30;2.10;;;18.20;99.90;;;;;;5053713;28;20029;-84
2021/08/03 05:28:38;;;;;;;3.75;1.98;;;18.20;99.90;;;;;;5053307;28;20127;-87
2021/08/03 05:31:03;;;;;;;2.90;1.75;;;18.60;99.90;;;;;;5053694;28;20025;-84
2021/08/03 05:33:29;;;;;;;5.35;2.00;;;19.00;99.90;;;;;;5054471;28;20057;-81
2021/08/03 05:35:55;;;;;;;7.13;3.38;;;18.70;99.90;;;;;;5052151;28;20063;-81
2021/08/03 05:38:20;;;;;;;6.00;2.70;;;18.20;99.90;;;;;;5054357;28;20029;-81
2021/08/03 05:40:46;;;;;;;7.00;2.40;;;17.90;99.90;;;;;;5053163;28;20070;-88
2021/08/03 05:43:12;;;;;;;4.05;1.73;;;17.70;99.90;;;;;;5053122;28;20025;-81
2021/08/03 05:45:38;;;;;;;4.53;1.92;;;17.40;99.90;;;;;;5053290;28;20021;-82
2021/08/03 05:48:04;;;;;;;4.43;2.05;;;17.40;99.90;;;;;;5010830;28;1214626;-81
2021/08/03 05:50:30;;;;;;;6.07;2.10;;;17.40;99.90;;;;;;5065043;28;20025;-87
2021/08/03 05:52:56;;;;;;;3.13;2.00;;;17.20;99.90;;;;;;5054590;28;20025;-83
2021/08/03 05:55:21;;;;;;;3.90;2.13;;;17.70;99.90;;;;;;5053103;28;20064;-79
2021/08/03 05:57:47;;;;;;;3.92;2.22;;;18.20;99.90;;;;;;5053034;28;20025;-81
2021/08/03 06:00:13;;;;;;;4.65;2.30;;;18.30;99.90;;;;;;5053382;28;20040;-81
2021/08/03 06:02:39;;;;;;;5.30;2.05;;;18.20;99.90;;;;;;5054912;28;20598;-81
2021/08/03 06:05:06;;;;;;;6.72;1.88;;;18.10;99.90;;;;;;5053584;28;20037;-82
2021/08/03 06:07:38;;;;;;;7.57;2.30;;;18.00;99.90;;;;;;5053417;28;20053;-82
2021/08/03 06:10:05;;;;;;;3.05;2.00;;;17.80;99.90;;;;;;5053539;28;20143;-81
2021/08/03 06:12:34;;;;;;;3.80;2.05;;;17.90;99.90;;;;;;5053027;28;20021;-81
2021/08/03 06:15:02;;;;;;;3.58;2.05;;;18.10;99.90;;;;;;5054316;28;20025;-82
2021/08/03 06:17:36;;;;;;;3.10;2.10;;;18.20;99.90;;;;;;5054345;28;20092;-80
2021/08/03 06:20:04;;;;;;;7.00;2.42;;;18.40;99.90;;;;;;5053154;28;20055;-80
2021/08/03 06:22:34;;;;;;;4.43;2.33;;;18.60;99.90;;;;;;5052745;28;20074;-80
2021/08/03 06:25:00;;;;;;;5.47;2.33;;;18.70;99.90;;;;;;5053245;28;20036;-81
2021/08/03 06:27:29;;;;;;;4.18;1.80;;;18.90;99.90;;;;;;5053430;28;20376;-81
2021/08/03 06:29:55;;;;;;;4.03;1.85;;;19.00;99.90;;;;;;5053357;28;20120;-79
2021/08/03 06:32:22;;;;;;;4.70;2.00;;;19.20;99.90;;;;;;5053027;28;20053;-79
2021/08/03 06:34:48;;;;;;;4.47;1.60;;;19.50;99.90;;;;;;5053295;28;20024;-79
2021/08/03 06:37:14;;;;;;;1.50;1.40;;;19.60;99.90;;;;;;5053654;28;20043;-79
2021/08/03 06:39:40;;;;;;;6.70;1.77;;;19.70;99.90;;;;;;5051988;28;20120;-78
2021/08/03 06:42:15;;;;;;;3.33;1.80;;;19.80;99.90;;;;;;5053133;28;20033;-78
2021/08/03 06:44:50;;;;;;;1.60;1.20;;;20.00;99.90;;;;;;5053661;28;20025;-78
2021/08/03 06:47:25;;;;;;;8.07;1.80;;;20.20;99.90;;;;;;5052388;28;20480;-89
2021/08/03 06:49:53;;;;;;;2.70;1.70;;;20.10;99.90;;;;;;5052652;28;20058;-77
2021/08/03 06:52:21;;;;;;;2.38;1.55;;;20.30;99.90;;;;;;5052676;28;20025;-87
2021/08/03 06:55:02;;;;;;;2.25;1.70;;;20.40;99.90;;;;;;5053147;28;20057;-78
2021/08/03 06:57:35;;;;;;;3.65;1.60;;;20.70;99.90;;;;;;5053765;28;20029;-77
2021/08/03 07:00:07;;;;;;;4.47;1.70;;;20.90;99.90;;;;;;5053213;28;20043;-89
2021/08/03 07:02:40;;;;;;;3.15;1.40;;;20.90;99.90;;;;;;5053000;28;20029;-87
2021/08/03 07:05:16;;;;;;;2.00;1.35;;;21.10;99.90;;;;;;5052356;28;20483;-89
2021/08/03 07:07:43;;;;;;;3.47;1.50;;;21.20;99.90;;;;;;5052614;28;20029;-90
2021/08/03 07:10:10;;;;;;;4.75;1.63;;;21.20;99.90;;;;;;5052380;28;20479;-77
2021/08/03 07:12:36;;;;;;;3.75;1.63;;;21.30;99.90;;;;;;5052217;28;20025;-90
2021/08/03 07:15:02;;;;;;;1.98;1.55;;;21.20;99.40;;;;;;5052384;28;20032;-90
2021/08/03 07:17:30;;;;;;;3.35;1.20;;;21.40;99.10;;;;;;5052033;28;20476;-77
2021/08/03 07:20:01;;;;;;;2.75;1.23;;;21.50;98.10;;;;;;5051692;28;20033;-88
2021/08/03 07:22:28;;;;;;;1.55;1.23;;;21.60;98.90;;;;;;5052831;28;20028;-79
2021/08/03 07:24:54;;;;;;;1.67;1.30;;;21.60;97.20;;;;;;5052829;28;20085;-88
2021/08/03 07:27:20;;;;;;;3.38;1.38;;;21.70;97.10;;;;;;5052881;28;20017;-86
2021/08/03 07:29:45;;;;;;;1.42;1.30;;;21.90;97.90;;;;;;5053624;28;20036;-77
2021/08/03 07:32:12;;;;;;;2.63;1.38;;;22.00;98.10;;;;;;5052503;28;20460;-80
2021/08/03 07:34:40;;;;;;;1.67;1.30;;;22.10;96.70;;;;;;5052541;28;20025;-80
2021/08/03 07:37:06;;;;;;;4.63;1.40;;;22.20;96.80;;;;;;5052225;28;20480;-79
2021/08/03 07:39:33;;;;;;;1.45;1.20;;;22.10;97.20;;;;;;5053226;28;20112;-80
2021/08/03 07:41:59;;;;;;;2.65;1.38;;;22.20;97.10;;;;;;5052466;28;20021;-82
2021/08/03 07:44:25;;;;;;;3.15;1.58;;;22.30;96.70;;;;;;5054316;28;20096;-77
2021/08/03 07:46:51;;;;;;;2.33;1.45;;;22.40;95.60;;;;;;5052534;28;20052;-88
2021/08/03 07:49:17;;;;;;;3.60;1.50;;;22.50;95.10;;;;;;5052885;28;20065;-86
2021/08/03 07:51:48;;;;;;;1.98;1.27;;;22.40;96.30;;;;;;5054705;28;20028;-80
2021/08/03 07:54:14;;;;;;;3.97;1.25;;;22.50;96.70;;;;;;5052540;28;20029;-89
2021/08/03 07:56:40;;;;;;;2.13;1.15;;;22.70;96.00;;;;;;5052576;28;20021;-81
2021/08/03 07:59:06;;;;;;;4.30;1.58;;;22.70;94.70;;;;;;5053187;28;20039;-80
2021/08/03 08:01:33;;;;;;;3.00;1.40;;;22.70;94.90;;;;;;5056281;28;20021;-80
2021/08/03 08:03:58;;;;;;;4.13;1.38;;;22.70;95.30;;;;;;5056304;28;20021;-82
2021/08/03 08:06:24;;;;;;;4.88;1.55;;;22.60;95.60;;;;;;5057174;28;20024;-82
2021/08/03 08:08:50;;;;;;;5.22;1.60;;;22.50;95.70;;;;;;5056368;28;20063;-82
2021/08/03 08:11:15;;;;;;;4.60;1.23;;;22.30;96.70;;;;;;5057565;28;20017;-86
2021/08/03 08:13:45;;;;;;;3.40;1.40;;;22.20;95.70;;;;;;5059372;28;20032;-86
2021/08/03 08:16:11;;;;;;;2.85;1.10;;;22.20;97.50;;;;;;5036830;28;20445;-83
2021/08/03 08:18:37;;;;;;;1.83;1.05;;;22.20;97.80;;;;;;5036658;28;20026;-89
2021/08/03 08:21:03;;;;;;;4.53;1.55;;;22.20;97.50;;;;;;5036092;28;20535;-82
2021/08/03 08:23:29;;;;;;;3.55;1.30;;;22.50;97.70;;;;;;5035918;28;20604;-80
2021/08/03 08:25:55;;;;;;;2.80;1.02;;;22.70;96.60;;;;;;5035846;28;20120;-84
2021/08/03 08:28:21;;;;;;;1.52;1.00;;;23.00;92.90;;;;;;5035759;28;20026;-78
2021/08/03 08:30:47;;;;;;;6.13;1.17;;;23.50;93.50;;;;;;5035885;28;20079;-83
2021/08/03 08:33:13;;;;;;;2.30;1.20;;;23.90;92.00;;;;;;5035602;28;20449;-81
2021/08/03 08:35:39;;;;;;;2.85;1.10;;;24.00;91.20;;;;;;5035629;28;20052;-82
2021/08/03 08:38:05;;;;;;;2.50;1.20;;;23.60;89.50;;;;;;5052419;28;20103;-79
2021/08/03 08:40:32;;;;;;;3.83;1.20;;;23.20;90.90;;;;;;5035422;28;20040;-79
2021/08/03 08:42:58;;;;;;;5.45;1.17;;;23.10;93.20;;;;;;5035010;28;20062;-79
2021/08/03 08:45:23;;;;;;;4.15;1.45;;;23.00;94.70;;;;;;5035702;28;20033;-84
2021/08/03 08:47:49;;;;;;;2.90;1.33;;;22.70;94.40;;;;;;5035020;28;20053;-79
2021/08/03 08:50:22;;;;;;;4.70;1.27;;;22.60;93.20;;;;;;5035344;28;20435;-79
2021/08/03 08:52:54;;;;;;;2.42;1.20;;;22.60;93.40;;;;;;5035110;28;20025;-85
2021/08/03 08:55:22;;;;;;;4.28;1.00;;;22.60;93.80;;;;;;5036757;28;20116;-80
2021/08/03 08:57:50;;;;;;;6.47;1.35;;;22.80;92.70;;;;;;5035114;28;20025;-86
2021/08/03 09:00:15;;;;;;;3.53;1.23;;;23.00;90.10;;;;;;5035130;28;20042;-82
2021/08/03 09:02:46;;;;;;;2.30;1.10;;;23.40;86.90;;;;;;5035789;28;20025;-83
2021/08/03 09:05:17;;;;;;;2.25;1.10;;;23.90;82.80;;;;;;5036509;28;20045;-84
2021/08/03 09:07:55;;;;;;;1.52;0.75;;;24.00;81.00;;;;;;5035746;28;20030;-88
2021/08/03 09:10:39;;;;;;;2.55;0.88;;;24.00;81.60;;;;;;5034279;28;20026;-87
2021/08/03 09:13:12;;;;;;;2.35;0.98;;;24.40;78.70;;;;;;5042861;28;20021;-88
2021/08/03 09:15:46;;;;;;;1.65;0.80;;;24.40;79.00;;;;;;5037889;28;20059;-84
2021/08/03 09:18:35;;;;;;;1.63;0.82;;;24.50;76.60;;;;;;5034730;28;20018;-87
2021/08/03 09:21:01;;;;;;;2.08;0.60;;;24.20;77.30;;;;;;5034727;28;20040;-79
2021/08/03 09:23:40;;;;;;;1.27;0.70;;;24.50;78.20;;;;;;5034535;28;20495;-82
2021/08/03 09:26:07;;;;;;;2.85;0.77;;;24.50;76.50;;;;;;5034929;28;20029;-80
2021/08/03 09:28:33;;;;;;;1.63;0.80;;;24.50;77.60;;;;;;5034271;28;20022;-79
2021/08/03 09:31:02;;;;;;;2.15;0.98;;;24.30;75.10;;;;;;5033617;28;20041;-80
2021/08/03 09:33:28;;;;;;;1.08;0.73;;;24.50;74.70;;;;;;5033216;28;20124;-81
2021/08/03 09:35:55;;;;;;;3.05;0.77;;;24.50;77.40;;;;;;5033399;28;20128;-80
2021/08/03 09:38:21;;;;;;;1.08;0.57;;;24.70;77.40;;;;;;5033354;28;20021;-80
2021/08/03 09:40:48;;;;;;;0.93;0.70;;;24.90;74.20;;;;;;5033031;28;20112;-79
2021/08/03 09:43:26;;;;;;;2.65;0.80;;;24.90;73.80;;;;;;5032900;28;20411;-80
2021/08/03 09:45:52;;;;;;;2.13;0.60;;;25.10;77.20;;;;;;5032954;28;20018;-80
2021/08/03 09:48:21;;;;;;;1.30;0.70;;;25.30;75.30;;;;;;5032696;28;20049;-79
2021/08/03 09:51:00;;;;;;;2.33;0.75;;;25.50;73.20;;;;;;5032702;28;20114;-80
2021/08/03 09:53:48;;;;;;;3.10;0.70;;;25.40;73.70;;;;;;5032703;28;20032;-80
2021/08/03 09:56:26;;;;;;;1.10;0.80;;;25.70;73.00;;;;;;5032889;28;20021;-80
2021/08/03 09:58:55;;;;;;;2.05;0.70;;;25.50;71.80;;;;;;5032851;28;20060;-81
2021/08/03 10:01:22;;;;;;;1.80;0.88;;;25.50;75.60;;;;;;5032664;28;20120;-80
2021/08/03 10:03:53;;;;;;;1.23;0.80;;;25.50;72.80;;;;;;5032784;28;20020;-80
2021/08/03 10:06:20;;;;;;;1.83;0.60;;;25.40;73.20;;;;;;5032615;28;20021;-80
2021/08/03 10:08:50;;;;;;;1.90;0.70;;;25.60;73.20;;;;;;5032787;28;20025;-80
2021/08/03 10:11:17;;;;;;;1.00;0.50;;;25.30;73.30;;;;;;5032549;28;20053;-80
2021/08/03 10:13:44;;;;;;;1.73;0.90;;;25.10;74.90;;;;;;5032507;28;20385;-80
2021/08/03 10:16:10;;;;;;;1.17;0.70;;;25.00;73.80;;;;;;5032519;28;20013;-84
2021/08/03 10:18:41;;;;;;;1.88;0.80;;;25.00;77.30;;;;;;5032590;28;20040;-80
2021/08/03 10:21:10;;;;;;;1.33;0.60;;;25.30;75.90;;;;;;5032724;28;20056;-82
2021/08/03 10:23:38;;;;;;;2.20;0.63;;;25.40;75.70;;;;;;5032400;28;20571;-80
2021/08/03 10:26:12;;;;;;;1.58;0.70;;;25.20;73.90;;;;;;5032392;28;20083;-82
2021/08/03 10:28:39;;;;;;;2.42;0.85;;;25.20;73.50;;;;;;5032255;28;20021;-81
2021/08/03 10:31:05;;;;;;;0.88;0.50;;;24.90;73.80;;;;;;5032134;28;20116;-80
2021/08/03 10:33:42;;;;;;;2.67;0.70;;;25.10;75.70;;;;;;5032077;28;20072;-80
2021/08/03 10:36:29;;;;;;;1.35;0.65;;;24.90;74.00;;;;;;5032235;28;20112;-81
2021/08/03 10:39:14;;;;;;;1.58;0.65;;;25.20;77.10;;;;;;5031954;28;20033;-81
2021/08/03 10:41:58;;;;;;;2.92;0.70;;;25.20;73.00;;;;;;5031955;28;20022;-81
2021/08/03 10:44:43;;;;;;;2.05;0.88;;;24.80;73.10;;;;;;5031979;28;20461;-81
2021/08/03 10:47:34;;;;;;;2.22;1.00;;;24.80;77.60;;;;;;5031837;28;20045;-81
2021/08/03 10:50:27;;;;;;;0.73;0.52;;;25.10;76.10;;;;;;5031902;28;20046;-80
2021/08/03 10:52:54;;;;;;;1.05;0.70;;;25.10;73.80;;;;;;5029081;28;20508;-86
2021/08/03 10:55:36;;;;;;;1.60;0.73;;;25.20;71.90;;;;;;5031897;28;20033;-80
2021/08/03 10:58:16;;;;;;;2.83;0.80;;;25.10;69.10;;;;;;5031812;28;20030;-78
2021/08/03 11:01:02;;;;;;;1.88;0.65;;;24.80;71.60;;;;;;5031517;28;20044;-80
2021/08/03 11:03:30;;;;;;;2.78;0.60;;;24.70;72.70;;;;;;5047961;28;20489;-82
2021/08/03 11:06:19;;;;;;;1.52;0.90;;;24.80;74.00;;;;;;5031590;28;20119;-79
2021/08/03 11:08:47;;;;;;;2.30;1.00;;;24.90;74.20;;;;;;5027846;28;20386;-79
2021/08/03 11:11:20;;;;;;;1.67;0.88;;;25.00;76.50;;;;;;5031613;28;20021;-81
2021/08/03 11:13:45;;;;;;;1.85;0.90;;;25.30;76.60;;;;;;5032785;28;20032;-79
2021/08/03 11:16:23;;;;;;;2.08;0.90;;;25.40;73.90;;;;;;5033455;28;20026;-78
2021/08/03 11:18:53;;;;;;;1.85;0.80;;;25.50;74.20;;;;;;5033832;28;20029;-82
2021/08/03 11:21:22;;;;;;;5.30;0.75;;;25.50;72.90;;;;;;5030924;28;20120;-78
2021/08/03 11:24:14;;;;;;;1.58;0.57;;;25.30;70.80;;;;;;5032982;28;20025;-77
2021/08/03 11:26:57;;;;;;;3.15;0.60;;;24.80;70.20;;;;;;5032828;28;20120;-79
2021/08/03 11:29:35;;;;;;;2.83;0.77;;;24.70;72.00;;;;;;5032593;28;20078;-78
2021/08/03 11:32:03;;;;;;;0.93;0.60;;;24.70;74.80;;;;;;5032641;28;20496;-80
2021/08/03 11:34:35;;;;;;;2.47;0.50;;;24.80;73.40;;;;;;5033961;28;20029;-79
2021/08/03 11:37:02;;;;;;;1.17;0.60;;;25.10;74.20;;;;;;5036734;28;20068;-78
2021/08/03 11:39:40;;;;;;;0.63;0.50;;;25.30;72.80;;;;;;5036554;28;20040;-80
2021/08/03 11:42:07;;;;;;;1.98;0.52;;;25.60;72.20;;;;;;5036513;28;20108;-77
2021/08/03 11:44:34;;;;;;;1.73;0.57;;;25.70;70.00;;;;;;5036547;28;20026;-78
2021/08/03 11:47:06;;;;;;;3.15;0.90;;;25.90;70.30;;;;;;5036282;28;20053;-79
2021/08/03 11:49:39;;;;;;;1.60;0.68;;;26.00;68.30;;;;;;5036330;28;20036;-80
2021/08/03 11:52:20;;;;;;;1.17;0.75;;;26.00;69.00;;;;;;5037501;28;20029;-80
2021/08/03 11:54:54;;;;;;;2.20;0.80;;;25.90;68.60;;;;;;5037428;28;20030;-80
2021/08/03 11:57:25;;;;;;;0.98;0.50;;;25.80;69.70;;;;;;5036405;28;20029;-80
2021/08/03 12:00:05;;;;;;;3.35;0.60;;;25.90;69.50;;;;;;5036376;28;20037;-82
2021/08/03 12:02:31;;;;;;;1.20;0.55;;;26.20;68.00;;;;;;5036022;28;20357;-85
2021/08/03 12:05:33;;;;;;;1.50;0.75;;;26.30;68.60;;;;;;5036453;28;20160;-80
2021/08/03 12:08:10;;;;;;;0.65;0.43;;;26.00;66.70;;;;;;5036290;28;20018;-80
2021/08/03 12:10:49;;;;;;;3.30;0.50;;;25.60;68.70;;;;;;5036223;28;20021;-80
2021/08/03 12:13:30;;;;;;;2.53;0.70;;;25.40;69.80;;;;;;5035760;28;20021;-79
2021/08/03 12:15:58;;;;;;;5.55;0.90;;;25.20;71.10;;;;;;5036021;28;20036;-80
2021/08/03 12:18:32;;;;;;;0.82;0.60;;;25.10;70.00;;;;;;5035920;28;20480;-82
2021/08/03 12:20:58;;;;;;;1.10;0.60;;;25.00;70.60;;;;;;5035820;28;20073;-79
2021/08/03 12:23:30;;;;;;;1.15;0.70;;;25.00;71.40;;;;;;5035519;28;20079;-78
2021/08/03 12:26:02;;;;;;;0.90;0.50;;;24.80;71.90;;;;;;5035766;28;20084;-79
2021/08/03 12:28:35;;;;;;;2.13;0.73;;;24.60;73.30;;;;;;5035535;28;20026;-81
2021/08/03 12:31:32;;;;;;;1.60;0.68;;;24.50;73.30;;;;;;5035625;28;20029;-80
2021/08/03 12:34:12;;;;;;;1.33;0.60;;;24.50;73.70;;;;;;5035736;28;20112;-79
2021/08/03 12:36:57;;;;;;;3.25;0.68;;;24.50;74.90;;;;;;5035663;28;20029;-78
2021/08/03 12:39:37;;;;;;;1.88;0.52;;;24.70;75.10;;;;;;5035549;28;20026;-80
2021/08/03 12:44:44;;;;;;;0.93;0.55;;;24.80;71.50;;;;;;5036471;28;20037;-78
2021/08/03 12:47:09;;;;;;;1.85;0.75;;;24.80;72.70;;;;;;5035177;28;20029;-79
2021/08/03 12:49:36;;;;;;;1.58;0.55;;;25.10;72.60;;;;;;5035376;28;20116;-78
2021/08/03 12:52:19;;;;;;;0.75;0.40;;;25.20;73.10;;;;;;5035220;28;20380;-78
2021/08/03 12:54:56;;;;;;;3.05;0.60;;;25.30;72.20;;;;;;5035954;28;20164;-77
2021/08/03 12:57:23;;;;;;;0.70;0.47;;;25.50;70.80;;;;;;5035388;28;20104;-78
2021/08/03 12:59:50;;;;;;;2.97;0.73;;;25.70;71.60;;;;;;5035254;28;20037;-80
2021/08/03 13:02:17;;;;;;;1.27;0.50;;;26.00;70.00;;;;;;5035166;28;20040;-77
2021/08/03 13:04:44;;;;;;;1.38;0.70;;;26.20;69.20;;;;;;5035072;28;20025;-78